sensor_id;sensor_type;location;lat;lon;timestamp;P1;durP1;ratioP1;P2;durP2;ratioP2
13366;SDS011;6752;52.612;13.630;2023-05-07T00:03:53;24.25;;;20.58;;
13366;SDS011;6752;52.612;13.630;2023-05-07T00:08:56;22.40;;;19.60;;
13366;SDS011;6752;52.612;13.630;2023-05-07T00:13:58;27.25;;;19.67;;
13366;SDS011;6752;52.612;13.630;2023-05-07T00:19:00;20.83;;;18.05;;
13366;SDS011;6752;52.612;13.630;2023-05-07T00:24:03;25.33;;;18.80;;
13366;SDS011;6752;52.612;13.630;2023-05-07T00:29:05;23.98;;;18.58;;
13366;SDS011;6752;52.612;13.630;2023-05-07T00:34:08;24.75;;;20.35;;
13366;SDS011;6752;52.612;13.630;2023-05-07T00:39:10;29.40;;;20.10;;
13366;SDS011;6752;52.612;13.630;2023-05-07T00:44:13;23.83;;;21.08;;
13366;SDS011;6752;52.612;13.630;2023-05-07T00:49:15;29.48;;;20.90;;
13366;SDS011;6752;52.612;13.630;2023-05-07T00:54:17;29.00;;;22.13;;
13366;SDS011;6752;52.612;13.630;2023-05-07T00:59:19;30.23;;;22.80;;
13366;SDS011;6752;52.612;13.630;2023-05-07T01:04:22;29.98;;;21.50;;
13366;SDS011;6752;52.612;13.630;2023-05-07T01:09:28;27.08;;;21.77;;
13366;SDS011;6752;52.612;13.630;2023-05-07T01:14:31;25.85;;;20.77;;
13366;SDS011;6752;52.612;13.630;2023-05-07T01:19:33;27.95;;;21.30;;
13366;SDS011;6752;52.612;13.630;2023-05-07T01:24:36;27.85;;;21.42;;
13366;SDS011;6752;52.612;13.630;2023-05-07T01:29:38;25.75;;;20.33;;
13366;SDS011;6752;52.612;13.630;2023-05-07T01:34:40;27.27;;;21.05;;
13366;SDS011;6752;52.612;13.630;2023-05-07T01:39:42;28.38;;;22.35;;
13366;SDS011;6752;52.612;13.630;2023-05-07T01:44:45;26.80;;;21.70;;
13366;SDS011;6752;52.612;13.630;2023-05-07T01:49:47;26.85;;;20.70;;
13366;SDS011;6752;52.612;13.630;2023-05-07T01:59:51;26.60;;;19.87;;
13366;SDS011;6752;52.612;13.630;2023-05-07T02:04:54;26.62;;;19.67;;
13366;SDS011;6752;52.612;13.630;2023-05-07T02:09:56;22.23;;;19.12;;
13366;SDS011;6752;52.612;13.630;2023-05-07T02:14:58;23.73;;;19.37;;
13366;SDS011;6752;52.612;13.630;2023-05-07T02:20:01;22.25;;;17.60;;
13366;SDS011;6752;52.612;13.630;2023-05-07T02:25:03;20.27;;;18.05;;
13366;SDS011;6752;52.612;13.630;2023-05-07T02:30:06;19.63;;;17.37;;
13366;SDS011;6752;52.612;13.630;2023-05-07T02:40:10;22.70;;;17.42;;
13366;SDS011;6752;52.612;13.630;2023-05-07T02:45:12;24.40;;;17.42;;
13366;SDS011;6752;52.612;13.630;2023-05-07T02:50:15;22.37;;;16.67;;
13366;SDS011;6752;52.612;13.630;2023-05-07T02:55:17;20.25;;;16.12;;
13366;SDS011;6752;52.612;13.630;2023-05-07T03:00:20;20.15;;;16.60;;
13366;SDS011;6752;52.612;13.630;2023-05-07T03:05:22;23.92;;;15.60;;
13366;SDS011;6752;52.612;13.630;2023-05-07T03:10:24;24.98;;;17.67;;
13366;SDS011;6752;52.612;13.630;2023-05-07T03:15:27;18.98;;;15.88;;
13366;SDS011;6752;52.612;13.630;2023-05-07T03:25:31;18.52;;;14.63;;
13366;SDS011;6752;52.612;13.630;2023-05-07T03:30:33;15.40;;;13.67;;
13366;SDS011;6752;52.612;13.630;2023-05-07T03:35:36;16.60;;;13.20;;
13366;SDS011;6752;52.612;13.630;2023-05-07T03:40:38;20.62;;;15.30;;
13366;SDS011;6752;52.612;13.630;2023-05-07T03:45:40;18.30;;;15.13;;
13366;SDS011;6752;52.612;13.630;2023-05-07T03:50:43;21.40;;;16.27;;
13366;SDS011;6752;52.612;13.630;2023-05-07T03:55:45;17.97;;;15.87;;
13366;SDS011;6752;52.612;13.630;2023-05-07T04:00:47;21.25;;;14.38;;
13366;SDS011;6752;52.612;13.630;2023-05-07T04:05:50;21.77;;;15.80;;
13366;SDS011;6752;52.612;13.630;2023-05-07T04:10:55;21.90;;;15.60;;
13366;SDS011;6752;52.612;13.630;2023-05-07T04:15:58;20.00;;;16.90;;
13366;SDS011;6752;52.612;13.630;2023-05-07T04:21:00;20.90;;;15.77;;
13366;SDS011;6752;52.612;13.630;2023-05-07T04:26:02;17.98;;;15.60;;
13366;SDS011;6752;52.612;13.630;2023-05-07T04:31:05;21.60;;;17.05;;
13366;SDS011;6752;52.612;13.630;2023-05-07T04:36:07;20.23;;;16.08;;
13366;SDS011;6752;52.612;13.630;2023-05-07T04:41:09;22.05;;;15.48;;
13366;SDS011;6752;52.612;13.630;2023-05-07T04:46:12;22.65;;;17.10;;
13366;SDS011;6752;52.612;13.630;2023-05-07T04:51:14;19.73;;;15.48;;
13366;SDS011;6752;52.612;13.630;2023-05-07T04:56:17;17.97;;;13.97;;
13366;SDS011;6752;52.612;13.630;2023-05-07T05:01:19;18.92;;;13.40;;
13366;SDS011;6752;52.612;13.630;2023-05-07T05:06:21;18.17;;;15.02;;
13366;SDS011;6752;52.612;13.630;2023-05-07T05:11:24;22.10;;;16.42;;
13366;SDS011;6752;52.612;13.630;2023-05-07T05:16:26;21.30;;;15.93;;
13366;SDS011;6752;52.612;13.630;2023-05-07T05:21:28;24.10;;;16.40;;
13366;SDS011;6752;52.612;13.630;2023-05-07T05:26:31;22.17;;;16.05;;
13366;SDS011;6752;52.612;13.630;2023-05-07T05:31:33;19.02;;;14.45;;
13366;SDS011;6752;52.612;13.630;2023-05-07T05:36:35;16.60;;;13.52;;
13366;SDS011;6752;52.612;13.630;2023-05-07T05:41:38;20.75;;;14.38;;
13366;SDS011;6752;52.612;13.630;2023-05-07T05:46:40;18.75;;;14.80;;
13366;SDS011;6752;52.612;13.630;2023-05-07T05:51:43;17.50;;;15.53;;
13366;SDS011;6752;52.612;13.630;2023-05-07T05:56:45;17.70;;;14.30;;
13366;SDS011;6752;52.612;13.630;2023-05-07T06:06:49;18.95;;;13.88;;
13366;SDS011;6752;52.612;13.630;2023-05-07T06:11:52;16.23;;;13.00;;
13366;SDS011;6752;52.612;13.630;2023-05-07T06:16:54;18.90;;;13.80;;
13366;SDS011;6752;52.612;13.630;2023-05-07T06:21:56;18.15;;;12.32;;
13366;SDS011;6752;52.612;13.630;2023-05-07T06:26:59;20.67;;;12.75;;
13366;SDS011;6752;52.612;13.630;2023-05-07T06:32:09;16.55;;;12.68;;
13366;SDS011;6752;52.612;13.630;2023-05-07T06:37:14;17.42;;;12.77;;
13366;SDS011;6752;52.612;13.630;2023-05-07T06:42:16;18.87;;;11.90;;
13366;SDS011;6752;52.612;13.630;2023-05-07T06:47:19;16.00;;;11.33;;
13366;SDS011;6752;52.612;13.630;2023-05-07T06:52:21;15.00;;;9.73;;
13366;SDS011;6752;52.612;13.630;2023-05-07T06:57:23;14.13;;;9.52;;
13366;SDS011;6752;52.612;13.630;2023-05-07T07:02:26;13.70;;;10.45;;
13366;SDS011;6752;52.612;13.630;2023-05-07T07:07:28;13.62;;;10.00;;
13366;SDS011;6752;52.612;13.630;2023-05-07T07:12:31;13.98;;;8.90;;
13366;SDS011;6752;52.612;13.630;2023-05-07T07:17:33;12.43;;;8.35;;
13366;SDS011;6752;52.612;13.630;2023-05-07T07:22:35;12.25;;;8.48;;
13366;SDS011;6752;52.612;13.630;2023-05-07T07:27:38;13.07;;;6.90;;
13366;SDS011;6752;52.612;13.630;2023-05-07T07:32:40;11.00;;;7.00;;
13366;SDS011;6752;52.612;13.630;2023-05-07T07:37:42;10.45;;;6.87;;
13366;SDS011;6752;52.612;13.630;2023-05-07T07:47:47;8.38;;;5.47;;
13366;SDS011;6752;52.612;13.630;2023-05-07T07:52:49;9.60;;;6.18;;
13366;SDS011;6752;52.612;13.630;2023-05-07T07:57:51;9.65;;;5.87;;
13366;SDS011;6752;52.612;13.630;2023-05-07T08:08:24;9.27;;;5.43;;
13366;SDS011;6752;52.612;13.630;2023-05-07T08:13:26;10.07;;;5.53;;
13366;SDS011;6752;52.612;13.630;2023-05-07T08:18:29;12.48;;;6.40;;
13366;SDS011;6752;52.612;13.630;2023-05-07T08:23:31;8.73;;;4.93;;
13366;SDS011;6752;52.612;13.630;2023-05-07T08:28:33;7.85;;;4.53;;
13366;SDS011;6752;52.612;13.630;2023-05-07T08:33:36;8.75;;;5.07;;
13366;SDS011;6752;52.612;13.630;2023-05-07T08:38:42;9.25;;;4.68;;
13366;SDS011;6752;52.612;13.630;2023-05-07T08:43:47;7.27;;;3.73;;
13366;SDS011;6752;52.612;13.630;2023-05-07T08:48:51;6.50;;;3.58;;
13366;SDS011;6752;52.612;13.630;2023-05-07T08:53:54;7.80;;;3.90;;
13366;SDS011;6752;52.612;13.630;2023-05-07T08:58:59;9.02;;;4.22;;
13366;SDS011;6752;52.612;13.630;2023-05-07T09:04:01;8.15;;;4.03;;
13366;SDS011;6752;52.612;13.630;2023-05-07T09:09:10;6.53;;;4.10;;
13366;SDS011;6752;52.612;13.630;2023-05-07T09:14:12;7.40;;;5.03;;
13366;SDS011;6752;52.612;13.630;2023-05-07T09:19:16;6.17;;;3.53;;
13366;SDS011;6752;52.612;13.630;2023-05-07T09:24:19;7.60;;;3.63;;
13366;SDS011;6752;52.612;13.630;2023-05-07T09:29:21;6.62;;;3.42;;
13366;SDS011;6752;52.612;13.630;2023-05-07T09:34:23;6.60;;;3.80;;
13366;SDS011;6752;52.612;13.630;2023-05-07T09:39:26;5.72;;;3.05;;
13366;SDS011;6752;52.612;13.630;2023-05-07T09:44:29;8.70;;;3.78;;
13366;SDS011;6752;52.612;13.630;2023-05-07T09:49:34;7.82;;;3.03;;
13366;SDS011;6752;52.612;13.630;2023-05-07T09:54:34;7.10;;;2.70;;
13366;SDS011;6752;52.612;13.630;2023-05-07T09:59:37;5.22;;;2.28;;
13366;SDS011;6752;52.612;13.630;2023-05-07T10:04:38;4.85;;;2.50;;
13366;SDS011;6752;52.612;13.630;2023-05-07T10:09:41;6.50;;;3.10;;
13366;SDS011;6752;52.612;13.630;2023-05-07T10:14:52;7.75;;;2.78;;
13366;SDS011;6752;52.612;13.630;2023-05-07T10:19:54;5.15;;;2.40;;
13366;SDS011;6752;52.612;13.630;2023-05-07T10:24:57;6.62;;;2.72;;
13366;SDS011;6752;52.612;13.630;2023-05-07T10:30:22;5.85;;;2.45;;
13366;SDS011;6752;52.612;13.630;2023-05-07T10:35:23;6.30;;;2.97;;
13366;SDS011;6752;52.612;13.630;2023-05-07T10:40:25;6.57;;;2.70;;
13366;SDS011;6752;52.612;13.630;2023-05-07T10:45:27;4.55;;;2.10;;
13366;SDS011;6752;52.612;13.630;2023-05-07T10:50:29;6.40;;;2.00;;
13366;SDS011;6752;52.612;13.630;2023-05-07T10:55:32;6.53;;;2.50;;
13366;SDS011;6752;52.612;13.630;2023-05-07T11:05:42;9.90;;;2.87;;
13366;SDS011;6752;52.612;13.630;2023-05-07T11:10:48;5.43;;;2.70;;
13366;SDS011;6752;52.612;13.630;2023-05-07T11:15:49;6.07;;;2.28;;
13366;SDS011;6752;52.612;13.630;2023-05-07T11:20:57;6.30;;;2.12;;
13366;SDS011;6752;52.612;13.630;2023-05-07T11:26:02;5.87;;;2.10;;
13366;SDS011;6752;52.612;13.630;2023-05-07T11:31:04;7.18;;;2.20;;
13366;SDS011;6752;52.612;13.630;2023-05-07T11:36:07;6.07;;;2.70;;
13366;SDS011;6752;52.612;13.630;2023-05-07T11:41:09;8.05;;;2.55;;
13366;SDS011;6752;52.612;13.630;2023-05-07T11:46:11;5.93;;;2.30;;
13366;SDS011;6752;52.612;13.630;2023-05-07T11:51:13;4.22;;;1.77;;
13366;SDS011;6752;52.612;13.630;2023-05-07T11:56:17;5.82;;;2.40;;
13366;SDS011;6752;52.612;13.630;2023-05-07T12:01:18;3.70;;;1.70;;
13366;SDS011;6752;52.612;13.630;2023-05-07T12:06:20;5.28;;;2.17;;
13366;SDS011;6752;52.612;13.630;2023-05-07T12:11:23;6.20;;;1.80;;
13366;SDS011;6752;52.612;13.630;2023-05-07T12:16:25;4.97;;;1.95;;
13366;SDS011;6752;52.612;13.630;2023-05-07T12:21:27;6.90;;;2.20;;
13366;SDS011;6752;52.612;13.630;2023-05-07T12:26:30;6.55;;;2.30;;
13366;SDS011;6752;52.612;13.630;2023-05-07T12:31:32;7.90;;;2.10;;
13366;SDS011;6752;52.612;13.630;2023-05-07T12:36:38;4.35;;;1.80;;
13366;SDS011;6752;52.612;13.630;2023-05-07T12:41:53;10.05;;;2.17;;
13366;SDS011;6752;52.612;13.630;2023-05-07T12:46:55;4.57;;;1.92;;
13366;SDS011;6752;52.612;13.630;2023-05-07T12:51:57;4.62;;;1.92;;
13366;SDS011;6752;52.612;13.630;2023-05-07T12:57:00;6.32;;;2.47;;
13366;SDS011;6752;52.612;13.630;2023-05-07T13:02:02;6.12;;;2.28;;
13366;SDS011;6752;52.612;13.630;2023-05-07T13:07:04;7.85;;;2.62;;
13366;SDS011;6752;52.612;13.630;2023-05-07T13:12:07;7.00;;;2.00;;
13366;SDS011;6752;52.612;13.630;2023-05-07T13:17:09;5.25;;;1.83;;
13366;SDS011;6752;52.612;13.630;2023-05-07T13:22:12;7.18;;;2.33;;
13366;SDS011;6752;52.612;13.630;2023-05-07T13:27:14;6.10;;;2.33;;
13366;SDS011;6752;52.612;13.630;2023-05-07T13:32:16;10.38;;;2.22;;
13366;SDS011;6752;52.612;13.630;2023-05-07T13:37:19;5.25;;;1.90;;
13366;SDS011;6752;52.612;13.630;2023-05-07T13:42:21;7.80;;;2.72;;
13366;SDS011;6752;52.612;13.630;2023-05-07T13:47:23;4.75;;;1.85;;
13366;SDS011;6752;52.612;13.630;2023-05-07T13:52:26;12.13;;;2.45;;
13366;SDS011;6752;52.612;13.630;2023-05-07T13:57:28;7.32;;;2.55;;
13366;SDS011;6752;52.612;13.630;2023-05-07T14:02:31;5.30;;;2.20;;
13366;SDS011;6752;52.612;13.630;2023-05-07T14:07:33;6.87;;;1.77;;
13366;SDS011;6752;52.612;13.630;2023-05-07T14:12:35;3.67;;;1.25;;
13366;SDS011;6752;52.612;13.630;2023-05-07T14:17:37;5.55;;;1.62;;
13366;SDS011;6752;52.612;13.630;2023-05-07T14:22:40;6.43;;;1.55;;
13366;SDS011;6752;52.612;13.630;2023-05-07T14:27:42;8.48;;;1.67;;
13366;SDS011;6752;52.612;13.630;2023-05-07T14:32:45;4.22;;;1.87;;
13366;SDS011;6752;52.612;13.630;2023-05-07T14:37:47;4.97;;;1.48;;
13366;SDS011;6752;52.612;13.630;2023-05-07T14:42:49;7.45;;;2.20;;
13366;SDS011;6752;52.612;13.630;2023-05-07T14:47:52;6.20;;;1.70;;
13366;SDS011;6752;52.612;13.630;2023-05-07T14:52:54;4.25;;;1.37;;
13366;SDS011;6752;52.612;13.630;2023-05-07T14:57:56;3.42;;;1.15;;
13366;SDS011;6752;52.612;13.630;2023-05-07T15:08:01;4.70;;;1.48;;
13366;SDS011;6752;52.612;13.630;2023-05-07T15:13:03;2.95;;;1.27;;
13366;SDS011;6752;52.612;13.630;2023-05-07T15:18:05;3.28;;;1.40;;
13366;SDS011;6752;52.612;13.630;2023-05-07T15:23:08;5.55;;;1.73;;
13366;SDS011;6752;52.612;13.630;2023-05-07T15:28:13;3.12;;;1.48;;
13366;SDS011;6752;52.612;13.630;2023-05-07T15:33:15;6.32;;;1.55;;
13366;SDS011;6752;52.612;13.630;2023-05-07T15:38:18;4.43;;;1.42;;
13366;SDS011;6752;52.612;13.630;2023-05-07T15:43:20;2.42;;;1.30;;
13366;SDS011;6752;52.612;13.630;2023-05-07T15:48:22;5.50;;;1.65;;
13366;SDS011;6752;52.612;13.630;2023-05-07T15:53:25;4.50;;;1.35;;
13366;SDS011;6752;52.612;13.630;2023-05-07T15:58:27;5.70;;;1.65;;
13366;SDS011;6752;52.612;13.630;2023-05-07T16:03:30;3.53;;;1.50;;
13366;SDS011;6752;52.612;13.630;2023-05-07T16:08:32;4.55;;;1.77;;
13366;SDS011;6752;52.612;13.630;2023-05-07T16:13:34;5.55;;;1.67;;
13366;SDS011;6752;52.612;13.630;2023-05-07T16:18:37;3.33;;;1.70;;
13366;SDS011;6752;52.612;13.630;2023-05-07T16:23:39;7.87;;;1.87;;
13366;SDS011;6752;52.612;13.630;2023-05-07T16:28:41;5.95;;;1.90;;
13366;SDS011;6752;52.612;13.630;2023-05-07T16:33:44;4.05;;;1.60;;
13366;SDS011;6752;52.612;13.630;2023-05-07T16:38:46;4.90;;;1.77;;
13366;SDS011;6752;52.612;13.630;2023-05-07T16:58:54;3.42;;;1.67;;
13366;SDS011;6752;52.612;13.630;2023-05-07T17:03:57;4.07;;;1.50;;
13366;SDS011;6752;52.612;13.630;2023-05-07T17:08:59;3.53;;;1.90;;
13366;SDS011;6752;52.612;13.630;2023-05-07T17:14:01;6.53;;;2.40;;
13366;SDS011;6752;52.612;13.630;2023-05-07T17:19:04;4.20;;;1.80;;
13366;SDS011;6752;52.612;13.630;2023-05-07T17:24:06;5.75;;;2.20;;
13366;SDS011;6752;52.612;13.630;2023-05-07T17:29:08;4.47;;;1.95;;
13366;SDS011;6752;52.612;13.630;2023-05-07T17:34:11;4.03;;;1.98;;
13366;SDS011;6752;52.612;13.630;2023-05-07T17:39:13;4.60;;;1.90;;
13366;SDS011;6752;52.612;13.630;2023-05-07T17:44:16;6.55;;;1.92;;
13366;SDS011;6752;52.612;13.630;2023-05-07T17:49:18;3.87;;;1.85;;
13366;SDS011;6752;52.612;13.630;2023-05-07T17:54:20;6.35;;;1.77;;
13366;SDS011;6752;52.612;13.630;2023-05-07T17:59:22;4.32;;;2.20;;
13366;SDS011;6752;52.612;13.630;2023-05-07T18:04:25;5.37;;;1.87;;
13366;SDS011;6752;52.612;13.630;2023-05-07T18:09:27;4.80;;;2.15;;
13366;SDS011;6752;52.612;13.630;2023-05-07T18:14:29;6.50;;;2.37;;
13366;SDS011;6752;52.612;13.630;2023-05-07T18:19:32;5.68;;;2.67;;
13366;SDS011;6752;52.612;13.630;2023-05-07T18:24:34;4.57;;;2.53;;
13366;SDS011;6752;52.612;13.630;2023-05-07T18:29:37;5.15;;;2.62;;
13366;SDS011;6752;52.612;13.630;2023-05-07T18:34:39;5.87;;;2.70;;
13366;SDS011;6752;52.612;13.630;2023-05-07T18:44:46;5.32;;;2.47;;
13366;SDS011;6752;52.612;13.630;2023-05-07T18:49:48;8.82;;;2.78;;
13366;SDS011;6752;52.612;13.630;2023-05-07T18:59:52;6.80;;;2.97;;
13366;SDS011;6752;52.612;13.630;2023-05-07T19:14:58;7.45;;;3.00;;
13366;SDS011;6752;52.612;13.630;2023-05-07T19:20:01;6.80;;;3.05;;
13366;SDS011;6752;52.612;13.630;2023-05-07T19:25:03;7.07;;;3.22;;
13366;SDS011;6752;52.612;13.630;2023-05-07T19:30:06;4.93;;;2.80;;
13366;SDS011;6752;52.612;13.630;2023-05-07T19:35:08;6.80;;;2.60;;
13366;SDS011;6752;52.612;13.630;2023-05-07T19:40:10;6.62;;;2.70;;
13366;SDS011;6752;52.612;13.630;2023-05-07T19:45:16;5.37;;;3.35;;
13366;SDS011;6752;52.612;13.630;2023-05-07T19:50:18;6.87;;;3.00;;
13366;SDS011;6752;52.612;13.630;2023-05-07T19:55:20;6.75;;;2.72;;
13366;SDS011;6752;52.612;13.630;2023-05-07T20:00:23;6.35;;;3.37;;
13366;SDS011;6752;52.612;13.630;2023-05-07T20:05:25;4.78;;;3.15;;
13366;SDS011;6752;52.612;13.630;2023-05-07T20:10:27;8.02;;;3.47;;
13366;SDS011;6752;52.612;13.630;2023-05-07T20:15:30;7.30;;;3.30;;
13366;SDS011;6752;52.612;13.630;2023-05-07T20:20:32;6.37;;;3.00;;
13366;SDS011;6752;52.612;13.630;2023-05-07T20:25:35;9.45;;;3.58;;
13366;SDS011;6752;52.612;13.630;2023-05-07T20:30:37;5.70;;;3.47;;
13366;SDS011;6752;52.612;13.630;2023-05-07T20:35:39;7.03;;;3.42;;
13366;SDS011;6752;52.612;13.630;2023-05-07T20:40:42;5.80;;;3.70;;
13366;SDS011;6752;52.612;13.630;2023-05-07T20:45:44;8.77;;;4.18;;
13366;SDS011;6752;52.612;13.630;2023-05-07T20:50:46;6.25;;;4.35;;
13366;SDS011;6752;52.612;13.630;2023-05-07T20:55:49;7.03;;;4.18;;
13366;SDS011;6752;52.612;13.630;2023-05-07T21:00:51;9.90;;;4.75;;
13366;SDS011;6752;52.612;13.630;2023-05-07T21:05:54;9.68;;;5.00;;
13366;SDS011;6752;52.612;13.630;2023-05-07T21:10:59;7.53;;;5.65;;
13366;SDS011;6752;52.612;13.630;2023-05-07T21:26:09;8.77;;;5.95;;
13366;SDS011;6752;52.612;13.630;2023-05-07T21:36:12;9.63;;;6.37;;
13366;SDS011;6752;52.612;13.630;2023-05-07T21:41:14;8.32;;;6.25;;
13366;SDS011;6752;52.612;13.630;2023-05-07T21:46:17;7.80;;;5.65;;
13366;SDS011;6752;52.612;13.630;2023-05-07T21:51:19;8.63;;;5.97;;
13366;SDS011;6752;52.612;13.630;2023-05-07T21:56:21;8.70;;;6.20;;
13366;SDS011;6752;52.612;13.630;2023-05-07T22:01:24;8.80;;;6.82;;
13366;SDS011;6752;52.612;13.630;2023-05-07T22:06:26;8.55;;;6.62;;
13366;SDS011;6752;52.612;13.630;2023-05-07T22:11:28;9.50;;;6.70;;
13366;SDS011;6752;52.612;13.630;2023-05-07T22:16:31;10.30;;;7.25;;
13366;SDS011;6752;52.612;13.630;2023-05-07T22:21:34;10.30;;;7.53;;
13366;SDS011;6752;52.612;13.630;2023-05-07T22:26:37;9.98;;;7.15;;
13366;SDS011;6752;52.612;13.630;2023-05-07T22:31:39;9.63;;;7.47;;
13366;SDS011;6752;52.612;13.630;2023-05-07T22:36:41;8.80;;;6.70;;
13366;SDS011;6752;52.612;13.630;2023-05-07T23:01:51;11.80;;;9.68;;
13366;SDS011;6752;52.612;13.630;2023-05-07T23:06:53;10.88;;;8.30;;
13366;SDS011;6752;52.612;13.630;2023-05-07T23:11:56;9.73;;;8.32;;
13366;SDS011;6752;52.612;13.630;2023-05-07T23:16:58;14.52;;;10.05;;
13366;SDS011;6752;52.612;13.630;2023-05-07T23:22:00;14.23;;;9.15;;
13366;SDS011;6752;52.612;13.630;2023-05-07T23:27:06;11.55;;;9.57;;
13366;SDS011;6752;52.612;13.630;2023-05-07T23:32:08;11.38;;;9.55;;
13366;SDS011;6752;52.612;13.630;2023-05-07T23:37:11;12.00;;;9.68;;
13366;SDS011;6752;52.612;13.630;2023-05-07T23:42:13;11.27;;;9.93;;
13366;SDS011;6752;52.612;13.630;2023-05-07T23:47:26;10.50;;;8.13;;
13366;SDS011;6752;52.612;13.630;2023-05-07T23:52:28;11.07;;;7.80;;
13366;SDS011;6752;52.612;13.630;2023-05-07T23:57:30;10.90;;;8.48;;
